createdAt,value
2018-01-12T00:01:57.358Z,45.57
2018-01-12T00:04:24.877Z,46.53
2018-01-12T00:06:53.108Z,46.93
2018-01-12T00:09:20.680Z,47.37
2018-01-12T00:11:48.211Z,45.23
2018-01-12T00:14:15.744Z,45.43
2018-01-12T00:16:43.276Z,48.50
2018-01-12T00:19:10.807Z,46.87
2018-01-12T00:21:38.275Z,47.67
2018-01-12T00:24:06.607Z,47.07
2018-01-12T00:26:34.157Z,44.33
2018-01-12T00:29:01.672Z,46.30
2018-01-12T00:31:29.175Z,47.03
2018-01-12T00:33:56.712Z,47.70
2018-01-12T00:36:24.983Z,44.70
2018-01-12T00:38:52.513Z,46.47
2018-01-12T00:41:20.036Z,44.17
2018-01-12T00:43:47.577Z,47.30
2018-01-12T00:46:15.851Z,48.23
2018-01-12T00:48:44.119Z,45.93
2018-01-12T00:51:12.420Z,46.87
2018-01-12T00:53:39.923Z,45.13
2018-01-12T00:56:08.220Z,41.97
2018-01-12T00:58:35.732Z,43.20
2018-01-12T01:01:03.274Z,42.37
2018-01-12T01:03:30.775Z,40.67
2018-01-12T01:05:59.046Z,44.73
2018-01-12T01:08:26.627Z,46.70
2018-01-12T01:10:54.108Z,46.33
2018-01-12T01:13:22.411Z,45.20
2018-01-12T01:15:49.924Z,49.57
2018-01-12T01:18:17.455Z,47.60
2018-01-12T01:20:44.965Z,51.70
2018-01-12T01:23:13.237Z,52.67
2018-01-12T01:25:40.779Z,47.70
2018-01-12T01:28:08.293Z,52.87
2018-01-12T01:30:35.819Z,52.27
2018-01-12T01:33:04.094Z,45.53
2018-01-12T01:35:32.392Z,45.30
2018-01-12T01:37:59.936Z,45.67
2018-01-12T01:40:28.235Z,48.20
2018-01-12T01:42:55.743Z,52.00
2018-01-12T01:45:23.613Z,49.50
2018-01-12T01:47:51.120Z,50.70
2018-01-12T01:50:18.649Z,53.43
2018-01-12T01:52:46.921Z,56.80
2018-01-12T01:55:15.217Z,53.03
2018-01-12T01:57:42.733Z,53.30
2018-01-12T02:00:10.273Z,49.20
2018-01-12T02:02:37.784Z,44.87
2018-01-12T02:05:06.082Z,39.80
2018-01-12T02:07:33.593Z,41.63
2018-01-12T02:10:01.128Z,42.60
2018-01-12T02:12:28.638Z,40.53
2018-01-12T02:14:56.941Z,41.40
2018-01-12T02:17:24.476Z,43.77
2018-01-12T02:19:52.750Z,41.37
2018-01-12T02:22:21.040Z,41.60
2018-01-12T02:24:48.552Z,41.23
2018-01-12T02:27:16.081Z,43.87
2018-01-12T02:29:43.607Z,39.10
2018-01-12T02:32:11.888Z,41.13
2018-01-12T02:34:40.184Z,41.40
2018-01-12T02:37:07.724Z,41.17
2018-01-12T02:39:36.047Z,42.40
2018-01-12T02:42:03.559Z,44.40
2018-01-12T02:44:31.865Z,39.73
2018-01-12T02:46:59.392Z,38.27
2018-01-12T02:49:26.904Z,39.23
2018-01-12T02:51:54.448Z,43.90
2018-01-12T02:54:21.955Z,39.57
2018-01-12T02:56:49.492Z,46.23
2018-01-12T02:59:16.999Z,43.37
2018-01-12T03:01:45.292Z,45.30
2018-01-12T03:04:12.795Z,43.60
2018-01-12T03:06:40.335Z,43.43
2018-01-12T03:09:07.843Z,45.27
2018-01-12T03:11:36.119Z,53.33
2018-01-12T03:14:04.418Z,43.77
2018-01-12T03:16:31.927Z,45.20
2018-01-12T03:18:59.469Z,43.83
2018-01-12T03:21:26.971Z,45.90
2018-01-12T03:23:55.376Z,37.60
2018-01-12T03:26:22.889Z,37.13
2018-01-12T03:28:50.391Z,40.00
2018-01-12T03:31:17.916Z,35.30
2018-01-12T03:33:46.203Z,37.20
2018-01-12T03:36:14.499Z,38.47
2018-01-12T03:38:42.008Z,40.77
2018-01-12T03:41:09.632Z,37.20
2018-01-12T03:43:37.140Z,40.20
2018-01-12T03:46:05.418Z,36.63
2018-01-12T03:48:32.946Z,41.97
2018-01-12T03:51:00.451Z,41.50
2018-01-12T03:53:28.788Z,41.90
2018-01-12T03:55:56.284Z,42.10
2018-01-12T03:58:24.555Z,48.30
2018-01-12T04:00:52.849Z,45.40
2018-01-12T04:03:21.148Z,43.00
2018-01-12T04:05:48.688Z,45.07
2018-01-12T04:08:16.964Z,41.97
2018-01-12T04:10:45.231Z,42.20
2018-01-12T04:13:13.522Z,42.63
2018-01-12T04:15:41.061Z,40.00
2018-01-12T04:18:09.334Z,42.20
2018-01-12T04:20:36.837Z,40.27
2018-01-12T04:23:04.375Z,44.33
2018-01-12T04:25:31.910Z,43.53
2018-01-12T04:28:00.183Z,44.70
2018-01-12T04:30:27.706Z,41.73
2018-01-12T04:32:55.231Z,41.60
2018-01-12T04:35:22.759Z,41.63
2018-01-12T04:37:50.283Z,42.40
2018-01-12T04:40:17.791Z,39.10
2018-01-12T04:42:46.100Z,40.87
2018-01-12T04:45:13.602Z,42.03
2018-01-12T04:47:41.114Z,43.83
2018-01-12T04:50:08.650Z,43.97
2018-01-12T04:52:36.914Z,42.60
2018-01-12T04:55:05.196Z,44.23
2018-01-12T04:57:33.496Z,45.17
2018-01-12T05:00:01.043Z,47.10
2018-01-12T05:02:29.339Z,45.30
2018-01-12T05:04:57.166Z,45.90
2018-01-12T05:07:24.699Z,48.30
2018-01-12T05:09:52.239Z,46.17
2018-01-12T05:12:19.771Z,45.67
2018-01-12T05:14:47.283Z,46.87
2018-01-12T05:17:14.860Z,47.37
2018-01-12T05:19:42.376Z,46.87
2018-01-12T05:22:09.907Z,46.13
2018-01-12T05:24:37.410Z,46.03
2018-01-12T05:27:04.907Z,46.60
2018-01-12T05:29:32.470Z,45.60
2018-01-12T05:32:00.744Z,50.23
2018-01-12T05:34:29.039Z,46.70
2018-01-12T05:36:56.547Z,46.27
2018-01-12T05:39:24.075Z,44.90
2018-01-12T05:41:51.608Z,47.03
2018-01-12T05:44:19.909Z,46.90
2018-01-12T05:46:47.448Z,52.73
2018-01-12T05:49:15.719Z,45.50
2018-01-12T05:51:43.992Z,43.40
2018-01-12T05:54:12.294Z,46.93
2018-01-12T05:56:39.806Z,50.93
2018-01-12T05:59:07.338Z,44.77
2018-01-12T06:01:46.799Z,56.33
2018-01-12T06:04:26.194Z,69.03
2018-01-12T06:06:53.723Z,58.43
2018-01-12T06:09:22.036Z,55.80
2018-01-12T06:11:49.547Z,51.97
2018-01-12T06:14:18.124Z,47.00
2018-01-12T06:16:45.659Z,44.70
2018-01-12T06:19:13.190Z,47.10
2018-01-12T06:21:40.722Z,46.43
2018-01-12T06:24:08.994Z,48.80
2018-01-12T06:26:37.292Z,46.17
2018-01-12T06:29:04.835Z,47.47
2018-01-12T06:31:33.127Z,43.27
2018-01-12T06:34:00.649Z,46.00
2018-01-12T06:36:28.155Z,48.33
2018-01-12T06:38:55.683Z,45.80
2018-01-12T06:41:23.956Z,47.73
2018-01-12T06:43:52.271Z,50.00
2018-01-12T06:46:19.775Z,46.93
2018-01-12T06:48:47.281Z,47.70
2018-01-12T06:51:14.820Z,46.30
2018-01-12T06:53:43.096Z,45.47
2018-01-12T06:56:11.394Z,44.50
2018-01-12T06:58:38.907Z,46.53
2018-01-12T07:01:06.437Z,46.80
2018-01-12T07:03:33.948Z,47.40
2018-01-12T07:06:02.249Z,44.70
2018-01-12T07:08:29.784Z,49.93
2018-01-12T07:10:58.064Z,46.93
2018-01-12T07:13:26.362Z,49.07
2018-01-12T07:15:53.866Z,47.30
2018-01-12T07:18:21.395Z,48.43
2018-01-12T07:23:52.752Z,47.67
2018-01-12T07:26:20.259Z,50.10
2018-01-12T07:28:47.795Z,49.83
2018-01-12T07:31:16.096Z,47.80
2018-01-12T07:33:43.596Z,53.83
2018-01-12T07:36:11.171Z,49.30
2018-01-12T07:38:38.689Z,46.03
2018-01-12T07:41:06.974Z,43.20
2018-01-12T07:43:35.383Z,43.73
2018-01-12T07:46:02.892Z,42.67
2018-01-12T07:48:30.403Z,42.37
2018-01-12T07:50:58.036Z,45.27
2018-01-12T07:53:26.310Z,42.17
2018-01-12T07:55:54.584Z,40.77
2018-01-12T07:58:22.879Z,43.50
2018-01-12T08:00:56.166Z,40.10
2018-01-12T08:03:23.695Z,41.97
2018-01-12T08:05:52.023Z,41.77
2018-01-12T08:08:19.532Z,37.30
2018-01-12T08:10:47.035Z,41.90
2018-01-12T08:13:14.569Z,40.60
2018-01-12T08:15:42.846Z,43.13
2018-01-12T08:18:11.147Z,43.03
2018-01-12T08:20:38.656Z,41.50
2018-01-12T08:23:06.188Z,42.00
2018-01-12T08:25:33.690Z,45.20
2018-01-12T08:28:02.010Z,44.13
2018-01-12T08:30:29.518Z,47.20
2018-01-12T08:32:57.029Z,45.53
2018-01-12T08:35:24.561Z,43.83
2018-01-12T08:37:52.860Z,43.57
2018-01-12T08:40:20.387Z,46.10
2018-01-12T08:42:48.663Z,48.27
2018-01-12T08:45:16.966Z,45.93
2018-01-12T08:47:44.479Z,46.07
2018-01-12T08:50:12.015Z,49.60
2018-01-12T08:52:39.522Z,47.70
2018-01-12T08:55:07.833Z,48.23
2018-01-12T08:57:35.346Z,50.77
2018-01-12T09:00:03.646Z,48.33
2018-01-12T09:02:31.166Z,47.00
2018-01-12T09:04:58.698Z,60.40
2018-01-12T09:07:26.209Z,66.77
2018-01-12T09:09:54.502Z,52.33
2018-01-12T09:12:22.006Z,56.00
2018-01-12T09:14:50.467Z,47.30
2018-01-12T09:17:29.923Z,55.83
2018-01-12T09:20:09.184Z,61.30
2018-01-12T09:22:45.682Z,76.10
2018-01-12T09:25:29.058Z,53.70
2018-01-12T09:27:56.559Z,53.33
2018-01-12T09:30:24.859Z,66.90
2018-01-12T09:32:52.367Z,50.00
2018-01-12T09:35:19.898Z,52.90
2018-01-12T09:37:59.091Z,54.67
2018-01-12T09:40:31.313Z,49.77
2018-01-12T09:42:58.855Z,53.97
2018-01-12T09:45:26.363Z,53.20
2018-01-12T09:48:18.222Z,48.67
2018-01-12T09:50:45.731Z,48.37
2018-01-12T09:53:13.266Z,56.80
2018-01-12T09:55:40.777Z,52.00
2018-01-12T09:58:09.056Z,49.50
2018-01-12T10:00:47.168Z,51.13
2018-01-12T10:03:15.471Z,52.13
2018-01-12T10:05:42.975Z,53.10
2018-01-12T10:08:16.474Z,48.23
2018-01-12T10:10:43.979Z,45.40
2018-01-12T10:13:11.514Z,47.00
2018-01-12T10:15:39.795Z,47.20
2018-01-12T10:18:30.651Z,47.80
2018-01-12T10:21:05.941Z,48.33
2018-01-12T10:23:34.215Z,47.27
2018-01-12T10:26:02.526Z,48.00
2018-01-12T10:28:30.027Z,54.13
2018-01-12T10:30:58.474Z,50.13
2018-01-12T10:33:57.782Z,48.20
2018-01-12T10:36:40.172Z,48.23
2018-01-12T10:39:24.398Z,50.97
2018-01-12T10:42:02.376Z,47.87
2018-01-12T10:44:29.916Z,48.70
2018-01-12T10:47:16.139Z,49.43
2018-01-12T10:49:55.584Z,45.77
2018-01-12T10:52:31.739Z,46.57
2018-01-12T10:54:59.267Z,44.20
2018-01-12T10:57:26.779Z,47.30
2018-01-12T10:59:55.075Z,44.17
2018-01-12T11:02:22.606Z,42.93
2018-01-12T11:04:50.884Z,45.33
2018-01-12T11:07:19.183Z,47.23
2018-01-12T11:09:46.695Z,44.47
2018-01-12T11:12:14.231Z,43.23
2018-01-12T11:14:42.502Z,46.97
2018-01-12T11:17:10.046Z,43.67
2018-01-12T11:19:37.544Z,44.70
2018-01-12T11:22:05.047Z,42.40
2018-01-12T11:24:32.578Z,43.70
2018-01-12T11:27:00.112Z,46.83
2018-01-12T11:29:27.645Z,44.30
2018-01-12T11:31:55.143Z,45.50
2018-01-12T11:34:22.674Z,46.53
2018-01-12T11:36:50.186Z,43.63
2018-01-12T11:39:18.484Z,45.10
2018-01-12T11:41:46.026Z,42.00
2018-01-12T11:44:14.298Z,44.50
2018-01-12T11:46:42.568Z,43.93
2018-01-12T11:49:10.872Z,42.87
2018-01-12T11:51:38.378Z,44.07
2018-01-12T11:54:05.904Z,42.50
2018-01-12T11:56:33.407Z,43.93
2018-01-12T11:59:00.935Z,41.17
2018-01-12T12:01:28.446Z,41.07
2018-01-12T12:03:56.749Z,43.63
2018-01-12T12:06:24.283Z,45.03
2018-01-12T12:08:52.558Z,44.00
2018-01-12T12:11:20.861Z,43.03
2018-01-12T12:13:48.362Z,41.43
2018-01-12T12:16:15.862Z,40.60
2018-01-12T12:18:44.164Z,41.80
2018-01-12T12:21:11.674Z,45.60
2018-01-12T12:23:39.181Z,47.80
2018-01-12T12:26:06.712Z,50.07
2018-01-12T12:28:34.978Z,45.47
2018-01-12T12:31:03.253Z,44.63
2018-01-12T12:33:31.578Z,42.53
2018-01-12T12:35:59.071Z,42.60
2018-01-12T12:38:26.600Z,40.30
2018-01-12T12:40:54.102Z,42.13
2018-01-12T12:43:22.445Z,41.53
2018-01-12T12:45:49.945Z,37.70
2018-01-12T12:48:18.245Z,36.67
2018-01-12T12:50:45.778Z,39.60
2018-01-12T12:53:14.048Z,38.07
2018-01-12T12:55:41.593Z,34.60
2018-01-12T12:58:09.099Z,38.07
2018-01-12T13:00:36.607Z,37.60
2018-01-12T13:03:04.135Z,38.77
2018-01-12T13:05:31.659Z,36.20
2018-01-12T13:07:59.921Z,37.03
2018-01-12T13:10:27.448Z,38.40
2018-01-12T13:12:54.978Z,37.10
2018-01-12T13:15:22.483Z,38.60
2018-01-12T13:17:50.017Z,37.50
2018-01-12T13:20:17.526Z,37.17
2018-01-12T13:22:45.822Z,35.20
2018-01-12T13:25:13.318Z,37.17
2018-01-12T13:27:40.818Z,35.10
2018-01-12T13:30:09.114Z,37.43
2018-01-12T13:32:36.624Z,34.83
2018-01-12T13:35:04.165Z,35.50
2018-01-12T13:37:31.662Z,34.33
2018-01-12T13:40:02.147Z,35.57
2018-01-12T13:42:32.519Z,34.40
2018-01-12T13:45:02.221Z,31.23
2018-01-12T13:47:36.055Z,36.10
2018-01-12T13:50:03.587Z,34.20
2018-01-12T13:52:34.806Z,32.07
2018-01-12T13:55:03.071Z,35.57
2018-01-12T13:57:30.597Z,36.63
2018-01-12T14:00:06.121Z,32.37
2018-01-12T14:02:36.492Z,32.23
2018-01-12T14:05:04.036Z,31.90
2018-01-12T14:07:35.397Z,33.03
2018-01-12T14:10:02.968Z,34.20
2018-01-12T14:12:30.498Z,34.63
2018-01-12T14:15:00.751Z,38.07
2018-01-12T14:17:28.282Z,37.53
2018-01-12T14:19:56.547Z,35.27
2018-01-12T14:22:24.838Z,38.70
2018-01-12T14:24:52.342Z,36.70
2018-01-12T14:27:19.866Z,32.57
2018-01-12T14:29:47.374Z,32.73
2018-01-12T14:32:14.910Z,34.73
2018-01-12T14:34:42.410Z,37.50
2018-01-12T14:37:10.677Z,36.60
2018-01-12T14:39:38.198Z,33.03
2018-01-12T14:42:12.674Z,36.73
2018-01-12T14:44:49.491Z,34.70
2018-01-12T14:47:18.933Z,33.43
2018-01-12T14:49:46.441Z,33.83
2018-01-12T14:52:13.970Z,36.83
2018-01-12T14:54:42.240Z,34.60
2018-01-12T14:57:10.541Z,32.97
2018-01-12T14:59:38.042Z,35.77
2018-01-12T15:02:05.577Z,35.07
2018-01-12T15:04:33.074Z,38.40
2018-01-12T15:07:00.577Z,37.43
2018-01-12T15:09:28.106Z,34.60
2018-01-12T15:11:55.608Z,33.70
2018-01-12T15:14:23.131Z,36.80
2018-01-12T15:16:51.406Z,34.57
2018-01-12T15:19:19.702Z,33.10
2018-01-12T15:21:47.970Z,32.00
2018-01-12T15:24:16.279Z,36.97
2018-01-12T15:26:43.783Z,35.37
2018-01-12T15:29:11.247Z,35.80
2018-01-12T15:31:38.820Z,100.10
2018-01-12T15:34:07.126Z,54.17
2018-01-12T15:36:34.642Z,63.97
2018-01-12T15:39:02.149Z,43.17
2018-01-12T15:41:29.679Z,37.47
2018-01-12T15:43:57.954Z,36.40
2018-01-12T15:46:26.248Z,34.63
2018-01-12T15:48:53.779Z,37.30
2018-01-12T15:51:22.096Z,33.73
2018-01-12T15:53:53.915Z,36.07
2018-01-12T15:56:21.441Z,36.57
2018-01-12T15:58:48.974Z,37.77
2018-01-12T16:01:16.508Z,38.53
2018-01-12T16:03:44.747Z,41.00
2018-01-12T16:06:13.070Z,37.33
2018-01-12T16:08:40.570Z,36.20
2018-01-12T16:11:12.007Z,34.57
2018-01-12T16:13:39.534Z,33.47
2018-01-12T16:16:07.804Z,35.30
2018-01-12T16:18:36.092Z,34.23
2018-01-12T16:21:03.592Z,37.67
2018-01-12T16:23:31.886Z,35.77
2018-01-12T16:25:59.390Z,36.70
2018-01-12T16:28:26.923Z,36.43
2018-01-12T16:30:55.194Z,36.33
2018-01-12T16:33:22.731Z,36.47
2018-01-12T16:35:50.267Z,37.20
2018-01-12T16:38:17.770Z,36.40
2018-01-12T16:40:46.075Z,32.87
2018-01-12T16:43:14.341Z,36.07
2018-01-12T16:45:41.862Z,35.87
2018-01-12T16:48:09.391Z,35.27
2018-01-12T16:50:36.895Z,38.70
2018-01-12T16:53:04.427Z,35.33
2018-01-12T16:55:31.958Z,36.60
2018-01-12T16:57:59.428Z,35.10
2018-01-12T17:00:26.994Z,38.27
2018-01-12T17:02:54.457Z,37.83
2018-01-12T17:05:21.985Z,36.37
2018-01-12T17:07:49.520Z,39.80
2018-01-12T17:10:17.785Z,31.93
2018-01-12T17:12:45.320Z,35.13
2018-01-12T17:15:12.824Z,37.50
2018-01-12T17:17:41.123Z,36.97
2018-01-12T17:20:08.664Z,36.80
2018-01-12T17:22:36.961Z,36.53
2018-01-12T17:25:04.465Z,37.70
2018-01-12T17:27:31.988Z,39.90
2018-01-12T17:29:59.491Z,41.40
2018-01-12T17:32:27.027Z,41.20
2018-01-12T17:34:54.528Z,43.83
2018-01-12T17:37:22.827Z,40.97
2018-01-12T17:39:50.334Z,40.43
2018-01-12T17:42:17.839Z,44.33
2018-01-12T17:44:45.383Z,48.67
2018-01-12T17:47:13.660Z,47.50
2018-01-12T17:49:41.936Z,39.20
2018-01-12T17:52:10.247Z,47.80
2018-01-12T17:54:37.754Z,48.40
2018-01-12T17:57:05.287Z,39.70
2018-01-12T17:59:32.794Z,41.43
2018-01-12T18:02:01.067Z,45.87
2018-01-12T18:04:29.359Z,45.63
2018-01-12T18:06:58.482Z,45.73
2018-01-12T18:09:26.007Z,48.83
2018-01-12T18:11:54.405Z,44.27
2018-01-12T18:14:21.837Z,41.90
2018-01-12T18:16:50.116Z,47.97
2018-01-12T18:19:18.406Z,46.37
2018-01-12T18:21:45.924Z,47.47
2018-01-12T18:24:13.463Z,50.20
2018-01-12T18:26:41.000Z,49.33
2018-01-12T18:29:08.502Z,51.83
2018-01-12T18:31:36.034Z,49.10
2018-01-12T18:34:03.542Z,50.60
2018-01-12T18:36:31.839Z,46.97
2018-01-12T18:38:59.359Z,49.17
2018-01-12T18:41:26.887Z,46.23
2018-01-12T18:43:54.423Z,45.37
2018-01-12T18:46:21.951Z,50.23
2018-01-12T18:48:50.243Z,50.30
2018-01-12T18:51:18.587Z,48.43
2018-01-12T18:53:46.114Z,49.27
2018-01-12T18:56:13.623Z,46.80
2018-01-12T18:58:41.914Z,49.80
2018-01-12T19:01:10.184Z,48.57
2018-01-12T19:03:37.713Z,45.80
2018-01-12T19:06:05.220Z,43.67
2018-01-12T19:08:32.752Z,48.10
2018-01-12T19:11:00.254Z,47.27
2018-01-12T19:13:27.798Z,50.23
2018-01-12T19:15:55.304Z,48.17
2018-01-12T19:18:22.805Z,48.37
2018-01-12T19:20:51.101Z,50.83
2018-01-12T19:23:18.606Z,55.03
2018-01-12T19:25:46.141Z,53.03
2018-01-12T19:28:13.649Z,52.27
2018-01-12T19:30:41.949Z,53.67
2018-01-12T19:33:09.452Z,50.10
2018-01-12T19:35:36.982Z,56.00
2018-01-12T19:38:04.487Z,51.20
2018-01-12T19:40:32.034Z,48.70
2018-01-12T19:42:59.803Z,49.63
2018-01-12T19:45:27.301Z,51.97
2018-01-12T19:47:54.906Z,54.00
2018-01-12T19:50:22.438Z,53.17
2018-01-12T19:52:49.938Z,51.23
2018-01-12T19:55:17.470Z,51.50
2018-01-12T19:57:44.980Z,50.53
2018-01-12T20:00:13.255Z,50.70
2018-01-12T20:02:41.550Z,51.47
2018-01-12T20:05:09.082Z,50.67
2018-01-12T20:07:37.350Z,52.97
2018-01-12T20:10:04.883Z,50.80
2018-01-12T20:12:32.416Z,51.47
2018-01-12T20:14:59.915Z,51.83
2018-01-12T20:17:27.454Z,50.80
2018-01-12T20:19:57.738Z,48.40
2018-01-12T20:22:26.042Z,54.47
2018-01-12T20:24:53.546Z,50.50
2018-01-12T20:27:21.052Z,52.00
2018-01-12T20:29:48.581Z,50.23
2018-01-12T20:32:16.888Z,49.27
2018-01-12T20:34:44.391Z,52.97
2018-01-12T20:37:11.922Z,53.63
2018-01-12T20:39:39.427Z,49.97
2018-01-12T20:42:07.722Z,52.10
2018-01-12T20:44:36.016Z,48.27
2018-01-12T20:47:04.363Z,51.20
2018-01-12T20:49:32.679Z,49.30
2018-01-12T20:52:00.186Z,51.63
2018-01-12T20:54:27.686Z,50.47
2018-01-12T20:56:55.222Z,56.90
2018-01-12T20:59:23.497Z,51.60
2018-01-12T21:01:53.370Z,55.40
2018-01-12T21:04:21.040Z,52.80
2018-01-12T21:06:49.354Z,57.37
2018-01-12T21:09:17.660Z,57.10
2018-01-12T21:11:45.159Z,58.87
2018-01-12T21:14:12.671Z,54.73
2018-01-12T21:16:40.209Z,56.30
2018-01-12T21:19:07.740Z,57.47
2018-01-12T21:21:35.270Z,52.67
2018-01-12T21:24:02.802Z,59.77
2018-01-12T21:26:30.346Z,57.93
2018-01-12T21:28:58.620Z,59.43
2018-01-12T21:31:26.938Z,57.20
2018-01-12T21:33:54.467Z,57.33
2018-01-12T21:36:22.734Z,58.93
2018-01-12T21:38:51.036Z,60.63
2018-01-12T21:41:18.843Z,62.17
2018-01-12T21:43:46.377Z,59.60
2018-01-12T21:46:13.902Z,61.70
2018-01-12T21:48:41.428Z,55.10
2018-01-12T21:51:08.950Z,61.60
2018-01-12T21:53:36.490Z,58.50
2018-01-12T21:56:03.994Z,60.93
2018-01-12T21:58:31.505Z,54.17
2018-01-12T22:00:59.053Z,57.23
2018-01-12T22:03:27.323Z,56.87
2018-01-12T22:05:55.593Z,53.90
2018-01-12T22:08:23.127Z,54.77
2018-01-12T22:10:50.666Z,51.87
2018-01-12T22:13:18.171Z,52.63
2018-01-12T22:15:46.443Z,52.30
2018-01-12T22:18:14.738Z,50.80
2018-01-12T22:20:43.002Z,50.57
2018-01-12T22:23:11.408Z,50.13
2018-01-12T22:25:38.954Z,50.67
2018-01-12T22:28:07.238Z,54.40
2018-01-12T22:30:34.766Z,50.53
2018-01-12T22:33:02.276Z,54.60
2018-01-12T22:35:29.838Z,50.03
2018-01-12T22:37:57.342Z,53.30
2018-01-12T22:40:24.843Z,52.20
2018-01-12T22:42:52.378Z,52.33
2018-01-12T22:45:20.654Z,52.63
2018-01-12T22:47:48.950Z,49.13
2018-01-12T22:50:16.455Z,51.73
2018-01-12T22:52:43.991Z,50.87
2018-01-12T22:55:11.495Z,48.70
2018-01-12T22:57:38.995Z,51.03
2018-01-12T23:00:06.534Z,48.87
2018-01-12T23:02:34.041Z,48.33
2018-01-12T23:05:01.542Z,49.47
2018-01-12T23:07:29.835Z,44.90
2018-01-12T23:09:57.341Z,48.40
2018-01-12T23:12:25.634Z,47.50
2018-01-12T23:14:53.195Z,45.87
2018-01-12T23:17:20.743Z,45.17
2018-01-12T23:19:48.291Z,46.40
2018-01-12T23:22:15.790Z,43.37
2018-01-12T23:24:44.067Z,49.70
2018-01-12T23:27:12.362Z,47.20
2018-01-12T23:29:39.867Z,50.10
2018-01-12T23:32:07.407Z,46.30
2018-01-12T23:34:34.918Z,50.80
2018-01-12T23:37:03.211Z,49.90
2018-01-12T23:39:31.480Z,45.93
2018-01-12T23:41:59.879Z,44.77
2018-01-12T23:44:27.387Z,47.40
2018-01-12T23:46:54.890Z,46.17
2018-01-12T23:49:22.423Z,46.23
2018-01-12T23:51:50.690Z,44.73
2018-01-12T23:54:18.215Z,48.23
2018-01-12T23:56:45.714Z,44.47
2018-01-12T23:59:14.006Z,42.10
